createdAt,value
2023-02-06T00:00:54.979Z,-2.26
2023-02-06T00:03:21.739Z,-2.21
2023-02-06T00:05:59.847Z,-2.23
2023-02-06T00:08:27.574Z,-2.18
2023-02-06T00:10:54.614Z,-2.50
2023-02-06T00:13:22.036Z,-2.50
2023-02-06T00:15:48.969Z,-2.48
2023-02-06T00:18:15.888Z,-2.50
2023-02-06T00:20:42.716Z,-2.34
2023-02-06T00:23:10.096Z,-2.31
2023-02-06T00:25:37.262Z,-2.30
2023-02-06T00:28:05.351Z,-2.16
2023-02-06T00:30:32.352Z,-2.27
2023-02-06T00:32:59.473Z,-2.34
2023-02-06T00:35:26.301Z,-2.48
2023-02-06T00:37:53.201Z,-2.44
2023-02-06T00:40:20.121Z,-2.31
2023-02-06T00:42:47.064Z,-2.24
2023-02-06T00:45:14.324Z,-2.31
2023-02-06T00:47:41.357Z,-2.38
2023-02-06T00:50:09.814Z,-2.47
2023-02-06T00:52:36.862Z,-2.38
2023-02-06T00:55:05.489Z,-2.57
2023-02-06T00:57:32.356Z,-2.42
2023-02-06T00:59:59.244Z,-2.34
2023-02-06T01:02:26.810Z,-2.37
2023-02-06T01:04:53.738Z,-2.52
2023-02-06T01:07:20.749Z,-2.50
2023-02-06T01:09:47.675Z,-2.56
2023-02-06T01:12:14.900Z,-2.60
2023-02-06T01:14:41.656Z,-2.74
2023-02-06T01:17:11.587Z,-2.68
2023-02-06T01:19:39.211Z,-2.63
2023-02-06T01:22:07.347Z,-2.72
2023-02-06T01:24:34.508Z,-2.82
2023-02-06T01:27:01.554Z,-2.66
2023-02-06T01:29:28.420Z,-2.90
2023-02-06T01:31:56.177Z,-2.74
2023-02-06T01:34:23.024Z,-2.71
2023-02-06T01:36:49.976Z,-2.66
2023-02-06T01:39:17.092Z,-2.65
2023-02-06T01:41:44.083Z,-2.57
2023-02-06T01:44:13.238Z,-2.49
2023-02-06T01:46:42.683Z,-2.51
2023-02-06T01:49:15.574Z,-2.60
2023-02-06T01:51:43.740Z,-2.62
2023-02-06T01:54:11.092Z,-2.57
2023-02-06T01:56:45.023Z,-2.55
2023-02-06T01:59:12.610Z,-2.43
2023-02-06T02:01:41.186Z,-2.60
2023-02-06T02:04:16.631Z,-2.51
2023-02-06T02:06:50.418Z,-2.69
2023-02-06T02:09:18.551Z,-2.61
2023-02-06T02:11:46.033Z,-2.58
2023-02-06T02:14:15.640Z,-2.55
2023-02-06T02:16:45.591Z,-2.49
2023-02-06T02:19:18.586Z,-2.56
2023-02-06T02:22:15.361Z,-2.55
2023-02-06T02:25:19.702Z,-2.52
2023-02-06T02:28:05.072Z,-2.61
2023-02-06T02:31:00.258Z,-2.70
2023-02-06T02:33:42.076Z,-2.72
2023-02-06T02:36:14.435Z,-2.63
2023-02-06T02:39:00.466Z,-2.75
2023-02-06T02:41:33.903Z,-2.67
2023-02-06T02:44:08.625Z,-2.71
2023-02-06T02:46:40.475Z,-2.72
2023-02-06T02:49:18.608Z,-2.76
2023-02-06T02:51:47.498Z,-2.83
2023-02-06T02:54:14.281Z,-2.69
2023-02-06T02:56:41.804Z,-2.63
2023-02-06T02:59:16.797Z,-2.54
2023-02-06T03:02:05.447Z,-2.61
2023-02-06T03:04:41.085Z,-2.59
2023-02-06T03:07:12.099Z,-2.48
2023-02-06T03:10:03.433Z,-2.45
2023-02-06T03:12:57.370Z,-2.48
2023-02-06T03:15:31.684Z,-2.73
2023-02-06T03:18:24.083Z,-2.62
2023-02-06T03:20:52.254Z,-2.69
2023-02-06T03:23:31.167Z,-2.71
2023-02-06T03:26:02.137Z,-2.65
2023-02-06T03:28:33.998Z,-2.67
2023-02-06T03:31:05.840Z,-2.56
2023-02-06T03:33:39.175Z,-2.53
2023-02-06T03:36:08.508Z,-2.50
2023-02-06T03:38:35.432Z,-2.53
2023-02-06T03:41:03.772Z,-2.47
2023-02-06T03:43:30.850Z,-2.47
2023-02-06T03:46:04.782Z,-2.54
2023-02-06T03:48:37.246Z,-2.54
2023-02-06T03:51:10.180Z,-2.46
2023-02-06T03:53:39.672Z,-2.54
2023-02-06T03:56:11.200Z,-2.50
2023-02-06T03:58:38.312Z,-2.46
2023-02-06T04:01:07.162Z,-2.51
2023-02-06T04:03:34.592Z,-2.56
2023-02-06T04:06:01.527Z,-2.65
2023-02-06T04:08:28.599Z,-2.53
2023-02-06T04:10:55.428Z,-2.48
2023-02-06T04:13:22.392Z,-2.59
2023-02-06T04:15:49.266Z,-2.40
2023-02-06T04:18:16.362Z,-2.37
2023-02-06T04:20:43.155Z,-2.38
2023-02-06T04:23:10.234Z,-2.40
2023-02-06T04:25:37.355Z,-2.42
2023-02-06T04:28:04.644Z,-2.45
2023-02-06T04:30:31.488Z,-2.40
2023-02-06T04:32:58.401Z,-2.46
2023-02-06T04:35:25.466Z,-2.52
2023-02-06T04:37:52.401Z,-2.49
2023-02-06T04:40:19.307Z,-2.43
2023-02-06T04:42:47.033Z,-2.42
2023-02-06T04:45:13.906Z,-2.52
2023-02-06T04:47:40.916Z,-2.49
2023-02-06T04:50:08.231Z,-2.52
2023-02-06T04:52:35.165Z,-2.50
2023-02-06T04:55:02.042Z,-2.45
2023-02-06T04:57:29.077Z,-2.41
2023-02-06T04:59:55.868Z,-2.44
2023-02-06T05:02:22.822Z,-2.37
2023-02-06T05:04:49.693Z,-2.35
2023-02-06T05:07:16.700Z,-2.37
2023-02-06T05:09:43.588Z,-2.32
2023-02-06T05:12:14.211Z,-2.36
2023-02-06T05:14:41.230Z,-2.36
2023-02-06T05:17:08.165Z,-2.29
2023-02-06T05:19:34.925Z,-2.27
2023-02-06T05:22:02.041Z,-2.22
2023-02-06T05:24:29.259Z,-2.16
2023-02-06T05:26:58.474Z,-2.14
2023-02-06T05:29:26.067Z,-2.21
2023-02-06T05:31:54.355Z,-2.17
2023-02-06T05:34:21.235Z,-2.27
2023-02-06T05:36:48.778Z,-2.14
2023-02-06T05:39:15.644Z,-2.29
2023-02-06T05:41:42.630Z,-2.24
2023-02-06T05:44:11.405Z,-2.25
2023-02-06T05:46:38.641Z,-2.20
2023-02-06T05:49:05.998Z,-2.16
2023-02-06T05:51:32.967Z,-2.12
2023-02-06T05:53:59.838Z,-2.12
2023-02-06T05:56:27.044Z,-2.09
2023-02-06T05:58:53.795Z,-2.07
2023-02-06T06:01:20.840Z,-2.06
2023-02-06T06:03:47.958Z,-2.05
2023-02-06T06:06:14.905Z,-1.93
2023-02-06T06:08:41.828Z,-1.93
2023-02-06T06:11:09.101Z,-1.87
2023-02-06T06:13:36.176Z,-1.86
2023-02-06T06:16:03.387Z,-1.90
2023-02-06T06:18:30.556Z,-1.87
2023-02-06T06:20:57.487Z,-1.78
2023-02-06T06:23:24.280Z,-1.71
2023-02-06T06:25:51.218Z,-1.71
2023-02-06T06:28:18.117Z,-1.67
2023-02-06T06:30:45.250Z,-1.67
2023-02-06T06:33:14.315Z,-1.66
2023-02-06T06:35:41.505Z,-1.63
2023-02-06T06:38:08.704Z,-1.64
2023-02-06T06:40:35.829Z,-1.58
2023-02-06T06:43:02.627Z,-1.58
2023-02-06T06:45:29.566Z,-1.64
2023-02-06T06:47:56.416Z,-1.50
2023-02-06T06:50:23.454Z,-1.52
2023-02-06T06:52:50.265Z,-1.72
2023-02-06T06:55:19.621Z,-1.63
2023-02-06T06:57:47.166Z,-1.61
2023-02-06T07:00:16.063Z,-1.55
2023-02-06T07:02:43.500Z,-1.43
2023-02-06T07:05:10.701Z,-1.57
2023-02-06T07:07:39.626Z,-1.61
2023-02-06T07:10:08.383Z,-1.64
2023-02-06T07:12:35.342Z,-1.69
2023-02-06T07:15:02.496Z,-1.77
2023-02-06T07:17:29.276Z,-1.63
2023-02-06T07:19:56.383Z,-1.76
2023-02-06T07:22:23.157Z,-1.79
2023-02-06T07:24:50.425Z,-1.56
2023-02-06T07:27:17.320Z,-1.45
2023-02-06T07:29:44.465Z,-1.56
2023-02-06T07:32:11.662Z,-1.58
2023-02-06T07:34:38.939Z,-1.52
2023-02-06T07:37:05.784Z,-1.48
2023-02-06T07:39:33.296Z,-1.48
2023-02-06T07:42:00.373Z,-1.46
2023-02-06T07:44:33.246Z,-1.51
2023-02-06T07:47:00.251Z,-1.55
2023-02-06T07:49:27.130Z,-1.71
2023-02-06T07:51:54.187Z,-1.60
2023-02-06T07:54:21.197Z,-1.75
2023-02-06T07:56:48.030Z,-1.76
2023-02-06T07:59:15.205Z,-1.79
2023-02-06T08:01:42.021Z,-1.92
2023-02-06T08:04:08.957Z,-1.84
2023-02-06T08:06:36.122Z,-1.81
2023-02-06T08:09:02.997Z,-1.67
2023-02-06T08:11:31.065Z,-1.50
2023-02-06T08:13:58.117Z,-1.66
2023-02-06T08:16:25.208Z,-1.78
2023-02-06T08:18:52.529Z,-1.61
2023-02-06T08:21:22.176Z,-1.52
2023-02-06T08:23:55.280Z,-1.69
2023-02-06T08:26:23.337Z,-1.60
2023-02-06T08:28:52.184Z,-1.56
2023-02-06T08:31:23.706Z,-1.42
2023-02-06T08:33:51.409Z,-1.36
2023-02-06T08:36:20.278Z,-1.43
2023-02-06T08:38:48.134Z,-1.35
2023-02-06T08:41:27.367Z,-1.23
2023-02-06T08:43:59.140Z,-1.09
2023-02-06T08:46:31.773Z,-1.30
2023-02-06T08:49:05.104Z,-1.34
2023-02-06T08:51:33.372Z,-0.83
2023-02-06T08:54:02.226Z,-1.22
2023-02-06T08:56:30.518Z,-1.20
2023-02-06T08:59:01.892Z,-1.27
2023-02-06T09:01:31.672Z,-0.92
2023-02-06T09:04:00.300Z,-1.00
2023-02-06T09:06:28.450Z,-1.12
2023-02-06T09:08:57.128Z,-1.05
2023-02-06T09:11:25.742Z,-0.95
2023-02-06T09:13:56.262Z,-0.64
2023-02-06T09:16:25.552Z,-0.76
2023-02-06T09:19:01.291Z,-0.69
2023-02-06T09:21:33.629Z,-0.71
2023-02-06T09:24:03.978Z,-0.82
2023-02-06T09:26:33.920Z,-0.60
2023-02-06T09:29:03.277Z,-0.85
2023-02-06T09:31:35.347Z,-0.71
2023-02-06T09:34:03.377Z,-0.70
2023-02-06T09:36:30.708Z,-0.65
2023-02-06T09:38:58.348Z,-0.75
2023-02-06T09:41:42.947Z,-0.50
2023-02-06T09:44:27.385Z,-0.70
2023-02-06T09:47:25.459Z,-0.71
2023-02-06T09:50:08.492Z,-0.84
2023-02-06T09:53:05.873Z,-0.85
2023-02-06T09:55:50.350Z,-0.83
2023-02-06T09:58:19.210Z,-0.87
2023-02-06T10:00:51.893Z,-0.97
2023-02-06T10:03:52.143Z,-1.02
2023-02-06T10:06:24.142Z,-0.96
2023-02-06T10:08:58.031Z,-0.83
2023-02-06T10:11:54.520Z,-0.94
2023-02-06T10:14:31.168Z,-0.84
2023-02-06T10:17:03.167Z,-1.03
2023-02-06T10:19:54.803Z,-0.87
2023-02-06T10:22:31.560Z,-0.87
2023-02-06T10:25:40.576Z,-1.01
2023-02-06T10:28:29.385Z,-1.02
2023-02-06T10:31:17.920Z,-1.11
2023-02-06T10:33:50.742Z,-1.09
2023-02-06T10:36:35.595Z,-1.08
2023-02-06T10:39:26.305Z,-0.93
2023-02-06T10:42:09.189Z,-0.86
2023-02-06T10:45:06.592Z,-0.48
2023-02-06T10:47:54.340Z,-0.20
2023-02-06T10:50:30.047Z,0.27
2023-02-06T10:53:01.805Z,0.53
2023-02-06T10:55:45.564Z,0.53
2023-02-06T10:58:25.424Z,0.45
2023-02-06T11:00:53.401Z,0.40
2023-02-06T11:03:24.400Z,0.72
2023-02-06T11:05:52.779Z,0.41
2023-02-06T11:08:27.970Z,0.16
2023-02-06T11:10:55.444Z,0.16
2023-02-06T11:13:34.177Z,0.10
2023-02-06T11:16:02.983Z,0.52
2023-02-06T11:18:41.861Z,0.84
2023-02-06T11:21:10.543Z,0.81
2023-02-06T11:23:37.565Z,0.94
2023-02-06T11:26:15.318Z,0.31
2023-02-06T11:28:54.545Z,0.81
2023-02-06T11:31:41.179Z,0.85
2023-02-06T11:34:22.010Z,0.56
2023-02-06T11:36:54.386Z,1.02
2023-02-06T11:39:23.941Z,0.88
2023-02-06T11:42:19.800Z,0.89
2023-02-06T11:44:52.163Z,0.58
2023-02-06T11:47:32.455Z,0.71
2023-02-06T11:50:14.879Z,0.67
2023-02-06T11:52:46.914Z,0.43
2023-02-06T11:55:29.807Z,0.14
2023-02-06T11:58:12.300Z,0.26
2023-02-06T12:00:41.956Z,0.11
2023-02-06T12:03:45.031Z,-0.43
2023-02-06T12:06:16.280Z,-0.47
2023-02-06T12:08:49.939Z,-0.61
2023-02-06T12:11:19.559Z,-0.59
2023-02-06T12:13:52.477Z,-0.16
2023-02-06T12:16:20.582Z,0.11
2023-02-06T12:18:52.750Z,0.19
2023-02-06T12:21:47.194Z,0.20
2023-02-06T12:24:40.805Z,0.36
2023-02-06T12:27:23.236Z,-0.42
2023-02-06T12:30:21.759Z,0.03
2023-02-06T12:32:55.650Z,0.03
2023-02-06T12:35:44.921Z,-0.08
2023-02-06T12:38:37.158Z,-0.05
2023-02-06T12:41:25.163Z,-0.01
2023-02-06T12:43:59.471Z,0.14
2023-02-06T12:46:28.363Z,0.34
2023-02-06T12:49:07.809Z,0.41
2023-02-06T12:51:53.645Z,0.60
2023-02-06T12:54:31.884Z,0.68
2023-02-06T12:57:19.037Z,0.65
2023-02-06T12:59:58.326Z,0.34
2023-02-06T13:02:59.576Z,0.56
2023-02-06T13:05:44.460Z,0.49
2023-02-06T13:08:18.682Z,0.49
2023-02-06T13:10:50.668Z,0.26
2023-02-06T13:13:35.817Z,0.40
2023-02-06T13:16:03.999Z,0.36
2023-02-06T13:18:44.582Z,0.67
2023-02-06T13:21:24.483Z,0.66
2023-02-06T13:24:12.962Z,0.65
2023-02-06T13:26:46.363Z,0.80
2023-02-06T13:29:33.921Z,0.74
2023-02-06T13:32:13.151Z,0.86
2023-02-06T13:34:44.289Z,0.42
2023-02-06T13:37:34.793Z,0.19
2023-02-06T13:40:22.890Z,0.36
2023-02-06T13:43:20.028Z,0.35
2023-02-06T13:45:51.142Z,0.11
2023-02-06T13:48:48.394Z,0.31
2023-02-06T13:51:40.229Z,0.02
2023-02-06T13:54:28.426Z,0.07
2023-02-06T13:57:16.757Z,-0.01
2023-02-06T13:59:54.999Z,0.12
2023-02-06T14:02:35.552Z,-0.13
2023-02-06T14:05:05.553Z,0.00
2023-02-06T14:07:54.072Z,0.06
2023-02-06T14:10:52.613Z,0.13
2023-02-06T14:13:55.047Z,0.15
2023-02-06T14:16:27.892Z,0.32
2023-02-06T14:19:16.893Z,0.27
2023-02-06T14:22:13.440Z,0.25
2023-02-06T14:24:52.666Z,0.32
2023-02-06T14:27:35.471Z,0.33
2023-02-06T14:30:31.291Z,0.15
2023-02-06T14:33:15.380Z,0.00
2023-02-06T14:35:54.055Z,-0.06
2023-02-06T14:38:39.401Z,-0.07
2023-02-06T14:41:06.919Z,-0.08
2023-02-06T14:43:39.416Z,-0.09
2023-02-06T14:46:12.369Z,-0.13
2023-02-06T14:48:53.905Z,-0.12
2023-02-06T14:51:26.293Z,-0.05
2023-02-06T14:54:45.730Z,-0.16
2023-02-06T14:57:18.614Z,-0.17
2023-02-06T15:00:11.477Z,-0.20
2023-02-06T15:02:38.818Z,-0.26
2023-02-06T15:05:06.724Z,-0.25
2023-02-06T15:07:37.960Z,-0.30
2023-02-06T15:10:13.170Z,-0.30
2023-02-06T15:12:40.575Z,-0.32
2023-02-06T15:15:10.340Z,-0.36
2023-02-06T15:17:38.837Z,-0.53
2023-02-06T15:20:20.858Z,-0.59
2023-02-06T15:22:47.961Z,-0.75
2023-02-06T15:25:31.510Z,-0.72
2023-02-06T15:28:05.158Z,-1.07
2023-02-06T15:30:34.018Z,-0.97
2023-02-06T15:33:01.607Z,-1.06
2023-02-06T15:35:41.954Z,-1.21
2023-02-06T15:38:14.982Z,-1.19
2023-02-06T15:40:46.632Z,-0.96
2023-02-06T15:43:16.487Z,-1.02
2023-02-06T15:45:44.901Z,-0.94
2023-02-06T15:48:19.719Z,-1.04
2023-02-06T15:51:20.509Z,-0.96
2023-02-06T15:53:49.592Z,-0.85
2023-02-06T15:56:25.030Z,-1.07
2023-02-06T15:59:01.877Z,-1.07
2023-02-06T16:01:37.269Z,-1.16
2023-02-06T16:04:29.356Z,-0.92
2023-02-06T16:07:20.810Z,-0.89
2023-02-06T16:09:53.229Z,-0.87
2023-02-06T16:12:21.449Z,-0.88
2023-02-06T16:14:56.162Z,-0.86
2023-02-06T16:17:35.349Z,-0.98
2023-02-06T16:20:06.079Z,-1.06
2023-02-06T16:22:38.529Z,-0.97
2023-02-06T16:25:13.547Z,-0.99
2023-02-06T16:27:46.313Z,-0.79
2023-02-06T16:30:35.146Z,-0.88
2023-02-06T16:33:33.314Z,-0.86
2023-02-06T16:36:00.716Z,-1.08
2023-02-06T16:38:27.488Z,-0.94
2023-02-06T16:40:54.615Z,-0.85
2023-02-06T16:43:22.403Z,-0.77
2023-02-06T16:45:50.011Z,-0.89
2023-02-06T16:48:18.021Z,-1.07
2023-02-06T16:50:48.377Z,-1.11
2023-02-06T16:53:25.779Z,-1.16
2023-02-06T16:55:53.222Z,-1.05
2023-02-06T16:58:23.425Z,-0.89
2023-02-06T17:00:51.296Z,-0.94
2023-02-06T17:03:18.367Z,-0.86
2023-02-06T17:05:47.902Z,-0.96
2023-02-06T17:08:23.875Z,-0.86
2023-02-06T17:10:51.573Z,-0.89
2023-02-06T17:13:21.519Z,-0.87
2023-02-06T17:15:49.600Z,-1.02
2023-02-06T17:18:18.466Z,-1.01
2023-02-06T17:20:47.950Z,-0.96
2023-02-06T17:23:15.671Z,-0.92
2023-02-06T17:25:45.164Z,-0.91
2023-02-06T17:28:15.624Z,-0.95
2023-02-06T17:30:44.778Z,-0.88
2023-02-06T17:33:12.419Z,-0.94
2023-02-06T17:35:39.338Z,-0.99
2023-02-06T17:38:09.023Z,-1.07
2023-02-06T17:40:37.866Z,-0.99
2023-02-06T17:43:05.759Z,-1.04
2023-02-06T17:45:35.370Z,-1.02
2023-02-06T17:48:02.518Z,-0.97
2023-02-06T17:50:30.707Z,-0.95
2023-02-06T17:52:59.204Z,-0.93
2023-02-06T17:55:28.117Z,-0.84
2023-02-06T17:57:55.687Z,-0.82
2023-02-06T18:00:24.627Z,-0.89
2023-02-06T18:02:53.218Z,-1.01
2023-02-06T18:05:21.123Z,-1.00
2023-02-06T18:07:50.690Z,-0.94
2023-02-06T18:10:19.901Z,-0.89
2023-02-06T18:12:47.539Z,-0.91
2023-02-06T18:15:15.525Z,-1.13
2023-02-06T18:17:43.512Z,-1.00
2023-02-06T18:20:11.998Z,-1.00
2023-02-06T18:22:41.317Z,-1.07
2023-02-06T18:25:14.451Z,-0.88
2023-02-06T18:27:45.189Z,-0.99
2023-02-06T18:30:13.031Z,-0.93
2023-02-06T18:32:39.906Z,-1.01
2023-02-06T18:35:10.318Z,-1.13
2023-02-06T18:37:37.406Z,-1.30
2023-02-06T18:40:04.719Z,-1.28
2023-02-06T18:42:50.578Z,-1.30
2023-02-06T18:45:18.882Z,-1.11
2023-02-06T18:47:45.921Z,-1.05
2023-02-06T18:50:13.250Z,-1.14
2023-02-06T18:52:40.066Z,-1.27
2023-02-06T18:55:08.698Z,-1.11
2023-02-06T18:57:36.793Z,-1.02
2023-02-06T19:00:11.662Z,-1.00
2023-02-06T19:02:38.605Z,-1.04
2023-02-06T19:05:05.490Z,-0.97
2023-02-06T19:07:32.802Z,-1.03
2023-02-06T19:10:01.403Z,-0.90
2023-02-06T19:12:29.608Z,-0.91
2023-02-06T19:14:57.946Z,-0.86
2023-02-06T19:17:27.282Z,-1.06
2023-02-06T19:19:54.874Z,-1.00
2023-02-06T19:22:22.054Z,-1.06
2023-02-06T19:24:51.504Z,-1.12
2023-02-06T19:27:18.554Z,-1.19
2023-02-06T19:29:46.157Z,-1.15
2023-02-06T19:32:13.853Z,-1.19
2023-02-06T19:34:42.076Z,-1.11
2023-02-06T19:37:10.281Z,-1.03
2023-02-06T19:39:40.259Z,-0.94
2023-02-06T19:42:10.206Z,-1.04
2023-02-06T19:44:37.512Z,-1.02
2023-02-06T19:47:04.578Z,-0.86
2023-02-06T19:49:31.729Z,-0.92
2023-02-06T19:51:58.679Z,-0.94
2023-02-06T19:54:25.744Z,-0.98
2023-02-06T19:56:52.616Z,-1.14
2023-02-06T19:59:25.978Z,-1.03
2023-02-06T20:01:58.259Z,-1.03
2023-02-06T20:04:28.727Z,-1.20
2023-02-06T20:06:56.422Z,-1.35
2023-02-06T20:09:24.378Z,-1.29
2023-02-06T20:11:52.241Z,-1.29
2023-02-06T20:14:19.266Z,-1.31
2023-02-06T20:16:47.513Z,-1.37
2023-02-06T20:19:18.686Z,-1.28
2023-02-06T20:21:49.352Z,-1.31
2023-02-06T20:24:20.908Z,-1.21
2023-02-06T20:26:49.839Z,-1.25
2023-02-06T20:29:25.338Z,-1.18
2023-02-06T20:31:52.964Z,-1.25
2023-02-06T20:34:21.801Z,-1.20
2023-02-06T20:36:49.908Z,-1.14
2023-02-06T20:39:18.184Z,-1.12
2023-02-06T20:41:45.971Z,-1.05
2023-02-06T20:44:14.439Z,-1.23
2023-02-06T20:46:42.409Z,-1.24
2023-02-06T20:49:16.002Z,-1.23
2023-02-06T20:51:43.042Z,-1.07
2023-02-06T20:54:13.553Z,-1.16
2023-02-06T20:56:41.087Z,-1.12
2023-02-06T20:59:11.917Z,-1.01
2023-02-06T21:01:40.044Z,-1.08
2023-02-06T21:04:09.577Z,-1.19
2023-02-06T21:06:37.413Z,-1.18
2023-02-06T21:09:06.356Z,-1.20
2023-02-06T21:11:36.854Z,-1.23
2023-02-06T21:14:05.353Z,-1.21
2023-02-06T21:16:33.347Z,-1.12
2023-02-06T21:19:01.657Z,-1.19
2023-02-06T21:21:28.639Z,-1.34
2023-02-06T21:23:55.980Z,-1.26
2023-02-06T21:26:24.014Z,-1.23
2023-02-06T21:28:51.914Z,-1.20
2023-02-06T21:31:24.680Z,-1.25
2023-02-06T21:33:52.750Z,-1.19
2023-02-06T21:36:21.233Z,-1.09
2023-02-06T21:38:48.278Z,-1.12
2023-02-06T21:41:17.733Z,-0.85
2023-02-06T21:43:45.579Z,-0.90
2023-02-06T21:46:13.303Z,-1.03
2023-02-06T21:48:41.681Z,-0.95
2023-02-06T21:51:13.408Z,-0.97
2023-02-06T21:53:40.690Z,-0.90
2023-02-06T21:56:28.414Z,-0.89
2023-02-06T21:58:55.623Z,-0.95
2023-02-06T22:01:26.477Z,-0.93
2023-02-06T22:03:54.111Z,-1.06
2023-02-06T22:06:21.564Z,-1.05
2023-02-06T22:08:54.312Z,-1.12
2023-02-06T22:11:27.270Z,-1.13
2023-02-06T22:14:02.483Z,-1.29
2023-02-06T22:16:29.753Z,-1.29
2023-02-06T22:18:57.287Z,-1.20
2023-02-06T22:21:26.952Z,-1.30
2023-02-06T22:23:57.349Z,-1.36
2023-02-06T22:26:25.357Z,-1.43
2023-02-06T22:28:52.502Z,-1.33
2023-02-06T22:31:24.673Z,-1.30
2023-02-06T22:33:52.503Z,-1.58
2023-02-06T22:36:24.386Z,-1.54
2023-02-06T22:39:12.553Z,-1.65
2023-02-06T22:41:44.798Z,-1.64
2023-02-06T22:44:16.296Z,-1.67
2023-02-06T22:46:46.432Z,-1.76
2023-02-06T22:49:13.847Z,-1.79
2023-02-06T22:51:41.654Z,-1.66
2023-02-06T22:54:11.910Z,-1.66
2023-02-06T22:56:41.156Z,-1.69
2023-02-06T22:59:22.786Z,-1.71
2023-02-06T23:01:55.255Z,-1.75
2023-02-06T23:04:28.394Z,-1.71
2023-02-06T23:06:55.735Z,-1.69
2023-02-06T23:09:29.414Z,-1.69
2023-02-06T23:11:58.427Z,-1.67
2023-02-06T23:14:26.431Z,-1.76
2023-02-06T23:16:53.516Z,-1.76
2023-02-06T23:19:20.806Z,-1.66
2023-02-06T23:21:49.465Z,-1.66
2023-02-06T23:24:16.822Z,-1.55
2023-02-06T23:26:45.965Z,-1.52
2023-02-06T23:29:17.988Z,-1.47
2023-02-06T23:31:46.844Z,-1.52
2023-02-06T23:34:14.479Z,-1.58
2023-02-06T23:36:41.319Z,-1.49
2023-02-06T23:39:08.350Z,-1.58
2023-02-06T23:41:35.432Z,-1.65
2023-02-06T23:44:05.186Z,-1.94
2023-02-06T23:46:34.742Z,-1.82
2023-02-06T23:49:01.683Z,-1.90
2023-02-06T23:51:28.734Z,-1.84
2023-02-06T23:53:55.626Z,-1.84
2023-02-06T23:56:29.116Z,-1.78
2023-02-06T23:58:56.918Z,-1.84
